Acadiana Regional Airport New Iberia US
ICAO: KARA
IATA: ARA
Category: Medium
Scheduled Services: No

Elevation: 24 ft
TransAlt. 18000 ft.

Airport Communications:
LAFAYETTE APP/DEP:121.1
CLNC DEL:121.7
CTAF:125
GND:121.7
TWR:125
UNICOM:122.95

KARA Zoom In..

If you have problems with the map follow the link
https://www.worldairports.se/pages/airport.php?
ICAO=KARA

Runways:

(A) RW 16 length 8002 ft width 200 ft
---- / hdg 165

(B) RW 34 length 8002 ft width 200 ft
ILS 108.90 / hdg 345

Location; KARA
Day. 26 / Time. 22.53 Zulu
* Altimeter: 29.95
* Temperature: 13° c. 55.4°f.
* Wind from: 010° Speed 08 kn.
Dewpoint: 13° c.
Visibility: 9 Statute Miles.
Clouds: Overcast 300 ft.

KARA 262253Z 01008KT 9SM OVC003 13/13 A2995 RMK AO2 SLP142 T01330133


Wind From 010°
Speed 08 kn.

 
 
jpsmedia worldairports.se 2020   terms of use